Terminal Aerodrome Forecast
Issued by NWS Boston, MA

Home | Current Version | Previous Version | Text Only | Print | Product List | Glossary Off
Versions: 1 2 3 4 5 6 7 8 9 10 11 12 13 14 15 16 17 18 19
000 FTUS41 KBOX 212331 AAD TAFORH TAF AMD KORH 212331Z 2200/2224 02008KT P6SM SCT250 FM221000 02011G18KT P6SM BKN025=

USA.gov is the U.S. government's official web portal to all federal, state and local government web resources and services.